createdAt,value
2018-03-08T00:01:58.949Z,98816.88
2018-03-08T00:03:05.039Z,98812.13
2018-03-08T00:04:10.865Z,98807.77
2018-03-08T00:05:17.017Z,98809.94
2018-03-08T00:06:23.112Z,98816.42
2018-03-08T00:07:29.243Z,98817.02
2018-03-08T00:08:35.361Z,98818.55
2018-03-08T00:09:41.510Z,98820.41
2018-03-08T00:10:47.615Z,98824.59
2018-03-08T00:11:53.447Z,98820.06
2018-03-08T00:12:59.647Z,98816.62
2018-03-08T00:14:05.523Z,98828.14
2018-03-08T00:15:11.646Z,98818.03
2018-03-08T00:16:17.818Z,98816.73
2018-03-08T00:17:23.948Z,98816.66
2018-03-08T00:18:30.043Z,98814.70
2018-03-08T00:19:36.166Z,98826.91
2018-03-08T00:20:42.326Z,98813.58
2018-03-08T00:21:48.472Z,98818.77
2018-03-08T00:22:54.629Z,98821.42
2018-03-08T00:24:00.792Z,98817.83
2018-03-08T00:25:06.926Z,98816.42
2018-03-08T00:26:13.012Z,98817.88
2018-03-08T00:27:19.197Z,98812.98
2018-03-08T00:28:29.192Z,98815.61
2018-03-08T00:29:35.342Z,98815.61
2018-03-08T00:30:41.443Z,98813.83
2018-03-08T00:31:49.589Z,98814.25
2018-03-08T00:32:55.729Z,98803.31
2018-03-08T00:34:01.875Z,98808.69
2018-03-08T00:35:08.023Z,98814.09
2018-03-08T00:36:14.147Z,98810.34
2018-03-08T00:37:20.246Z,98810.70
2018-03-08T00:38:26.373Z,98810.09
2018-03-08T00:39:33.101Z,98809.11
2018-03-08T00:40:39.200Z,98809.44
2018-03-08T00:41:45.320Z,98812.99
2018-03-08T00:42:51.491Z,98808.89
2018-03-08T00:43:58.808Z,98811.09
2018-03-08T00:45:04.245Z,98811.97
2018-03-08T00:46:10.456Z,98810.11
2018-03-08T00:47:16.543Z,98813.41
2018-03-08T00:48:22.654Z,98811.75
2018-03-08T00:49:28.768Z,98808.61
2018-03-08T00:50:34.858Z,98812.40
2018-03-08T00:51:46.305Z,98808.95
2018-03-08T00:52:52.384Z,98814.02
2018-03-08T00:53:58.568Z,98813.45
2018-03-08T00:55:04.317Z,98819.20
2018-03-08T00:56:10.465Z,98821.66
2018-03-08T00:57:16.917Z,98823.20
2018-03-08T00:58:23.068Z,98828.63
2018-03-08T00:59:29.215Z,98825.66
2018-03-08T01:00:44.543Z,98826.09
2018-03-08T01:01:50.678Z,98829.72
2018-03-08T01:02:56.779Z,98829.69
2018-03-08T01:04:02.916Z,98825.22
2018-03-08T01:05:11.509Z,98828.66
2018-03-08T01:06:17.673Z,98833.43
2018-03-08T01:07:24.040Z,98831.26
2018-03-08T01:08:30.179Z,98842.41
2018-03-08T01:09:36.309Z,98837.93
2018-03-08T01:10:42.416Z,98833.86
2018-03-08T01:11:48.512Z,98838.25
2018-03-08T01:12:59.757Z,98843.44
2018-03-08T01:14:06.230Z,98842.92
2018-03-08T01:15:12.348Z,98836.66
2018-03-08T01:16:18.562Z,98840.98
2018-03-08T01:17:24.684Z,98839.52
2018-03-08T01:18:30.785Z,98840.80
2018-03-08T01:19:36.945Z,98837.94
2018-03-08T01:20:43.033Z,98844.53
2018-03-08T01:21:49.152Z,98844.69
2018-03-08T01:22:55.502Z,98841.52
2018-03-08T01:24:01.622Z,98840.53
2018-03-08T01:25:07.786Z,98842.22
2018-03-08T01:26:14.811Z,98842.67
2018-03-08T01:27:20.732Z,98840.48
2018-03-08T01:28:26.877Z,98832.13
2018-03-08T01:29:33.026Z,98838.22
2018-03-08T01:30:39.140Z,98840.95
2018-03-08T01:31:45.333Z,98837.03
2018-03-08T01:32:52.093Z,98834.94
2018-03-08T01:33:57.975Z,98841.36
2018-03-08T01:35:04.080Z,98845.75
2018-03-08T01:36:21.271Z,98844.27
2018-03-08T01:37:27.142Z,98843.69
2018-03-08T01:38:33.433Z,98842.20
2018-03-08T01:39:39.573Z,98852.45
2018-03-08T01:40:45.691Z,98845.59
2018-03-08T01:41:51.806Z,98850.41
2018-03-08T01:43:00.761Z,98850.89
2018-03-08T01:44:11.046Z,98853.75
2018-03-08T01:45:17.144Z,98849.77
2018-03-08T01:46:23.308Z,98859.23
2018-03-08T01:47:30.325Z,98861.13
2018-03-08T01:48:37.312Z,98861.03
2018-03-08T01:49:43.494Z,98861.16
2018-03-08T01:50:49.658Z,98861.39
2018-03-08T01:52:07.625Z,98865.46
2018-03-08T01:53:19.361Z,98862.55
2018-03-08T01:54:25.527Z,98859.56
2018-03-08T01:55:31.872Z,98871.34
2018-03-08T01:56:37.977Z,98865.35
2018-03-08T01:57:43.875Z,98870.67
2018-03-08T01:58:50.325Z,98875.71
2018-03-08T01:59:56.156Z,98871.92
2018-03-08T02:01:02.268Z,98875.16
2018-03-08T02:02:07.385Z,98883.08
2018-03-08T02:03:12.244Z,98879.58
2018-03-08T02:04:18.445Z,98882.65
2018-03-08T02:05:24.885Z,98884.27
2018-03-08T02:06:31.004Z,98881.78
2018-03-08T02:07:37.176Z,98886.23
2018-03-08T02:08:43.279Z,98885.56
2018-03-08T02:09:49.446Z,98884.17
2018-03-08T02:10:55.580Z,98886.69
2018-03-08T02:12:01.714Z,98888.80
2018-03-08T02:13:07.842Z,98885.36
2018-03-08T02:14:13.974Z,98888.96
2018-03-08T02:15:20.142Z,98887.93
2018-03-08T02:16:26.360Z,98893.17
2018-03-08T02:17:32.478Z,98892.25
2018-03-08T02:18:38.626Z,98889.13
2018-03-08T02:19:47.648Z,98887.66
2018-03-08T02:20:53.877Z,98883.64
2018-03-08T02:22:00.124Z,98889.09
2018-03-08T02:23:06.346Z,98894.92
2018-03-08T02:24:12.495Z,98893.89
2018-03-08T02:25:18.597Z,98900.70
2018-03-08T02:26:24.782Z,98897.06
2018-03-08T02:27:30.918Z,98903.53
2018-03-08T02:28:37.127Z,98897.78
2018-03-08T02:29:43.328Z,98898.83
2018-03-08T02:30:49.508Z,98900.31
2018-03-08T02:31:55.988Z,98901.25
2018-03-08T02:33:02.117Z,98904.13
2018-03-08T02:34:08.243Z,98905.42
2018-03-08T02:35:14.368Z,98906.80
2018-03-08T02:36:20.484Z,98905.50
2018-03-08T02:37:26.597Z,98910.52
2018-03-08T02:38:33.745Z,98914.33
2018-03-08T02:39:40.531Z,98917.67
2018-03-08T02:40:46.711Z,98913.16
2018-03-08T02:41:52.892Z,98909.59
2018-03-08T02:42:59.048Z,98913.61
2018-03-08T02:44:05.216Z,98913.83
2018-03-08T02:45:11.336Z,98914.05
2018-03-08T02:46:17.492Z,98910.66
2018-03-08T02:47:23.395Z,98911.09
2018-03-08T02:48:29.568Z,98910.74
2018-03-08T02:49:35.705Z,98916.79
2018-03-08T02:50:41.829Z,98918.38
2018-03-08T02:51:53.574Z,98924.20
2018-03-08T02:52:59.744Z,98916.07
2018-03-08T02:54:05.838Z,98925.63
2018-03-08T02:55:11.950Z,98920.16
2018-03-08T02:56:18.437Z,98921.53
2018-03-08T02:57:24.600Z,98920.98
2018-03-08T02:58:30.800Z,98929.09
2018-03-08T02:59:36.965Z,98923.73
2018-03-08T03:00:45.960Z,98927.05
2018-03-08T03:01:52.134Z,98925.42
2018-03-08T03:02:58.283Z,98936.58
2018-03-08T03:04:04.065Z,98924.81
2018-03-08T03:05:09.946Z,98927.22
2018-03-08T03:06:16.150Z,98929.11
2018-03-08T03:07:22.309Z,98931.58
2018-03-08T03:08:28.497Z,98935.73
2018-03-08T03:09:34.259Z,98931.63
2018-03-08T03:10:39.765Z,98926.02
2018-03-08T03:11:45.637Z,98936.84
2018-03-08T03:12:51.755Z,98930.80
2018-03-08T03:13:57.882Z,98933.67
2018-03-08T03:15:03.432Z,98935.10
2018-03-08T03:16:09.587Z,98932.11
2018-03-08T03:17:15.888Z,98931.92
2018-03-08T03:18:21.696Z,98938.33
2018-03-08T03:19:27.853Z,98940.34
2018-03-08T03:20:33.972Z,98944.44
2018-03-08T03:21:40.166Z,98935.02
2018-03-08T03:22:46.374Z,98941.04
2018-03-08T03:23:52.502Z,98943.61
2018-03-08T03:24:58.709Z,98937.59
2018-03-08T03:26:05.019Z,98945.86
2018-03-08T03:27:11.187Z,98942.02
2018-03-08T03:28:17.330Z,98942.66
2018-03-08T03:29:23.492Z,98950.50
2018-03-08T03:30:29.665Z,98943.19
2018-03-08T03:31:35.786Z,98946.21
2018-03-08T03:32:41.961Z,98943.11
2018-03-08T03:33:48.143Z,98946.29
2018-03-08T03:34:54.253Z,98945.99
2018-03-08T03:36:00.392Z,98946.55
2018-03-08T03:37:06.540Z,98941.91
2018-03-08T03:38:12.716Z,98946.68
2018-03-08T03:39:18.824Z,98948.25
2018-03-08T03:40:24.993Z,98948.46
2018-03-08T03:41:31.141Z,98949.91
2018-03-08T03:42:37.267Z,98946.73
2018-03-08T03:43:43.423Z,98950.69
2018-03-08T03:44:49.227Z,98948.19
2018-03-08T03:45:55.372Z,98948.51
2018-03-08T03:47:02.434Z,98951.26
2018-03-08T03:48:08.547Z,98951.71
2018-03-08T03:49:14.653Z,98948.69
2018-03-08T03:50:20.807Z,98948.29
2018-03-08T03:51:26.939Z,98951.06
2018-03-08T03:52:33.098Z,98949.45
2018-03-08T03:53:39.267Z,98953.31
2018-03-08T03:54:45.404Z,98953.31
2018-03-08T03:55:51.782Z,98949.82
2018-03-08T03:56:57.922Z,98952.57
2018-03-08T03:58:03.755Z,98955.34
2018-03-08T03:59:10.125Z,98959.77
2018-03-08T04:00:16.250Z,98954.59
2018-03-08T04:01:22.390Z,98957.23
2018-03-08T04:02:28.548Z,98955.77
2018-03-08T04:03:34.729Z,98951.50
2018-03-08T04:04:40.889Z,98960.81
2018-03-08T04:05:47.088Z,98959.22
2018-03-08T04:06:55.236Z,98958.34
2018-03-08T04:08:01.361Z,98957.14
2018-03-08T04:09:07.534Z,98959.14
2018-03-08T04:10:13.697Z,98962.11
2018-03-08T04:11:19.866Z,98959.94
2018-03-08T04:12:25.990Z,98963.66
2018-03-08T04:13:32.188Z,98962.68
2018-03-08T04:14:38.700Z,98959.34
2018-03-08T04:15:44.567Z,98960.66
2018-03-08T04:16:50.744Z,98965.72
2018-03-08T04:17:56.855Z,98963.26
2018-03-08T04:19:03.024Z,98967.02
2018-03-08T04:20:09.185Z,98961.86
2018-03-08T04:21:15.327Z,98960.26
2018-03-08T04:22:21.465Z,98966.42
2018-03-08T04:23:27.722Z,98964.23
2018-03-08T04:24:33.915Z,98969.83
2018-03-08T04:25:40.031Z,98970.17
2018-03-08T04:26:46.204Z,98966.13
2018-03-08T04:27:52.495Z,98965.80
2018-03-08T04:28:58.688Z,98964.16
2018-03-08T04:30:04.151Z,98962.83
2018-03-08T04:31:10.273Z,98969.72
2018-03-08T04:32:16.434Z,98966.58
2018-03-08T04:33:22.567Z,98971.34
2018-03-08T04:34:28.673Z,98972.36
2018-03-08T04:35:34.845Z,98971.06
2018-03-08T04:36:40.992Z,98972.95
2018-03-08T04:37:47.095Z,98976.84
2018-03-08T04:38:53.198Z,98979.25
2018-03-08T04:39:59.368Z,98981.00
2018-03-08T04:41:05.524Z,98977.09
2018-03-08T04:42:11.689Z,98982.06
2018-03-08T04:43:18.250Z,98985.34
2018-03-08T04:44:24.409Z,98986.94
2018-03-08T04:45:30.561Z,98983.57
2018-03-08T04:46:37.013Z,98991.48
2018-03-08T04:47:43.142Z,98984.50
2018-03-08T04:48:49.292Z,98987.49
2018-03-08T04:49:55.380Z,98982.55
2018-03-08T04:51:01.473Z,98984.98
2018-03-08T04:52:08.518Z,98986.00
2018-03-08T04:53:14.873Z,98993.09
2018-03-08T04:54:20.983Z,98994.36
2018-03-08T04:55:27.163Z,98987.00
2018-03-08T04:56:33.029Z,98993.88
2018-03-08T04:57:39.222Z,98996.83
2018-03-08T04:58:45.361Z,98993.30
2018-03-08T04:59:51.518Z,98995.41
2018-03-08T05:00:57.640Z,98994.51
2018-03-08T05:02:03.849Z,98995.56
2018-03-08T05:03:09.821Z,98991.34
2018-03-08T05:04:16.188Z,98993.56
2018-03-08T05:05:22.579Z,98991.06
2018-03-08T05:06:28.942Z,98998.16
2018-03-08T05:07:35.182Z,98996.73
2018-03-08T05:08:41.404Z,99004.52
2018-03-08T05:09:47.625Z,98998.42
2018-03-08T05:10:53.897Z,98998.98
2018-03-08T05:11:59.836Z,99000.02
2018-03-08T05:13:05.707Z,99007.81
2018-03-08T05:14:11.845Z,99007.28
2018-03-08T05:15:17.942Z,99005.94
2018-03-08T05:16:24.115Z,99013.34
2018-03-08T05:17:30.204Z,99014.80
2018-03-08T05:18:36.023Z,99011.11
2018-03-08T05:19:42.115Z,99014.17
2018-03-08T05:20:48.247Z,99010.13
2018-03-08T05:21:54.401Z,99017.77
2018-03-08T05:23:00.490Z,99013.11
2018-03-08T05:24:06.660Z,99021.47
2018-03-08T05:25:12.792Z,99023.83
2018-03-08T05:26:18.929Z,99023.08
2018-03-08T05:27:25.410Z,99017.86
2018-03-08T05:28:31.702Z,99023.63
2018-03-08T05:29:37.847Z,99026.09
2018-03-08T05:30:43.992Z,99031.77
2018-03-08T05:31:50.110Z,99032.07
2018-03-08T05:32:56.182Z,99043.81
2018-03-08T05:34:02.349Z,99034.97
2018-03-08T05:35:08.588Z,99037.77
2018-03-08T05:36:14.670Z,99046.47
2018-03-08T05:37:20.795Z,99040.71
2018-03-08T05:38:26.895Z,99047.73
2018-03-08T05:39:33.037Z,99049.75
2018-03-08T05:40:39.160Z,99040.11
2018-03-08T05:41:48.562Z,99041.70
2018-03-08T05:42:54.673Z,99049.57
2018-03-08T05:44:00.594Z,99041.56
2018-03-08T05:45:06.755Z,99050.77
2018-03-08T05:46:12.862Z,99048.15
2018-03-08T05:47:18.996Z,99045.17
2018-03-08T05:48:25.165Z,99054.38
2018-03-08T05:49:31.346Z,99052.19
2018-03-08T05:50:37.473Z,99057.70
2018-03-08T05:51:43.641Z,99059.12
2018-03-08T05:52:49.761Z,99057.85
2018-03-08T05:53:55.923Z,99057.52
2018-03-08T05:55:02.031Z,99063.75
2018-03-08T05:56:08.224Z,99059.11
2018-03-08T05:57:14.397Z,99064.63
2018-03-08T05:58:20.529Z,99072.27
2018-03-08T05:59:26.668Z,99063.14
2018-03-08T06:00:32.815Z,99071.58
2018-03-08T06:01:39.083Z,99071.46
2018-03-08T06:02:45.295Z,99078.75
2018-03-08T06:03:51.557Z,99074.88
2018-03-08T06:04:57.734Z,99074.86
2018-03-08T06:06:03.910Z,99083.45
2018-03-08T06:07:10.616Z,99078.78
2018-03-08T06:08:16.721Z,99081.05
2018-03-08T06:09:22.811Z,99077.13
2018-03-08T06:10:28.930Z,99086.73
2018-03-08T06:11:34.853Z,99089.38
2018-03-08T06:12:41.011Z,99082.11
2018-03-08T06:13:47.145Z,99085.95
2018-03-08T06:14:53.312Z,99088.45
2018-03-08T06:15:59.473Z,99093.99
2018-03-08T06:17:05.643Z,99095.86
2018-03-08T06:18:11.556Z,99093.42
2018-03-08T06:19:17.700Z,99094.35
2018-03-08T06:20:23.818Z,99101.47
2018-03-08T06:21:29.953Z,99103.69
2018-03-08T06:22:36.088Z,99100.30
2018-03-08T06:23:42.196Z,99103.81
2018-03-08T06:24:48.366Z,99109.00
2018-03-08T06:25:54.485Z,99108.11
2018-03-08T06:27:00.840Z,99108.52
2018-03-08T06:28:08.229Z,99113.32
2018-03-08T06:29:14.173Z,99116.63
2018-03-08T06:30:20.357Z,99121.43
2018-03-08T06:31:26.830Z,99122.61
2018-03-08T06:32:33.582Z,99120.48
2018-03-08T06:33:41.649Z,99122.89
2018-03-08T06:34:48.836Z,99129.52
2018-03-08T06:35:56.170Z,99127.45
2018-03-08T06:37:02.789Z,99131.09
2018-03-08T06:38:08.934Z,99133.13
2018-03-08T06:39:21.479Z,99132.16
2018-03-08T06:40:28.406Z,99134.31
2018-03-08T06:41:34.538Z,99136.58
2018-03-08T06:42:40.736Z,99135.16
2018-03-08T06:43:46.837Z,99132.63
2018-03-08T06:44:52.756Z,99139.13
2018-03-08T06:45:58.932Z,99132.69
2018-03-08T06:47:04.404Z,99143.07
2018-03-08T06:48:10.208Z,99137.07
2018-03-08T06:49:16.365Z,99140.00
2018-03-08T06:50:22.533Z,99146.05
2018-03-08T06:51:28.709Z,99147.65
2018-03-08T06:52:34.837Z,99141.72
2018-03-08T06:53:41.028Z,99143.58
2018-03-08T06:54:47.213Z,99147.64
2018-03-08T06:55:53.333Z,99140.12
2018-03-08T06:56:59.513Z,99148.08
2018-03-08T06:58:05.641Z,99149.77
2018-03-08T06:59:11.790Z,99151.17
2018-03-08T07:00:17.960Z,99151.54
2018-03-08T07:01:24.081Z,99154.50
2018-03-08T07:02:30.295Z,99156.24
2018-03-08T07:03:36.414Z,99160.04
2018-03-08T07:04:42.537Z,99158.16
2018-03-08T07:05:48.689Z,99156.47
2018-03-08T07:06:54.809Z,99153.93
2018-03-08T07:08:00.912Z,99158.05
2018-03-08T07:09:07.137Z,99159.43
2018-03-08T07:10:13.265Z,99163.66
2018-03-08T07:11:19.437Z,99172.03
2018-03-08T07:12:25.587Z,99167.57
2018-03-08T07:13:31.705Z,99165.77
2018-03-08T07:14:37.869Z,99169.69
2018-03-08T07:15:44.389Z,99177.09
2018-03-08T07:16:50.561Z,99176.09
2018-03-08T07:17:56.672Z,99178.05
2018-03-08T07:19:02.817Z,99184.91
2018-03-08T07:20:10.416Z,99183.79
2018-03-08T07:21:16.671Z,99191.81
2018-03-08T07:22:22.796Z,99186.00
2018-03-08T07:23:28.972Z,99179.53
2018-03-08T07:24:34.929Z,99193.84
2018-03-08T07:25:41.087Z,99189.38
2018-03-08T07:26:47.244Z,99192.90
2018-03-08T07:27:53.339Z,99195.58
2018-03-08T07:28:59.577Z,99192.67
2018-03-08T07:30:05.396Z,99191.86
2018-03-08T07:31:11.653Z,99195.16
2018-03-08T07:32:17.944Z,99203.81
2018-03-08T07:33:24.060Z,99202.92
2018-03-08T07:34:30.139Z,99205.15
2018-03-08T07:35:36.300Z,99209.59
2018-03-08T07:36:42.433Z,99203.73
2018-03-08T07:37:48.596Z,99212.81
2018-03-08T07:38:54.587Z,99209.16
2018-03-08T07:40:00.697Z,99210.52
2018-03-08T07:41:06.832Z,99216.09
2018-03-08T07:42:13.062Z,99220.12
2018-03-08T07:43:19.181Z,99218.80
2018-03-08T07:44:25.339Z,99225.04
2018-03-08T07:45:32.304Z,99225.94
2018-03-08T07:46:38.440Z,99225.84
2018-03-08T07:47:44.829Z,99225.89
2018-03-08T07:48:51.002Z,99227.28
2018-03-08T07:49:57.119Z,99225.36
2018-03-08T07:51:03.759Z,99225.89
2018-03-08T07:52:09.875Z,99226.13
2018-03-08T07:53:16.076Z,99232.02
2018-03-08T07:54:22.241Z,99232.75
2018-03-08T07:55:28.103Z,99236.80
2018-03-08T07:56:34.249Z,99230.05
2018-03-08T07:57:40.410Z,99242.52
2018-03-08T07:58:46.524Z,99237.33
2018-03-08T07:59:52.690Z,99245.02
2018-03-08T08:00:58.877Z,99244.08
2018-03-08T08:02:04.677Z,99246.62
2018-03-08T08:03:10.860Z,99249.86
2018-03-08T08:04:27.559Z,99250.05
2018-03-08T08:05:44.480Z,99256.40
2018-03-08T08:07:01.557Z,99251.45
2018-03-08T08:08:18.621Z,99253.91
2018-03-08T08:09:24.488Z,99256.56
2018-03-08T08:10:30.452Z,99251.38
2018-03-08T08:11:36.217Z,99263.12
2018-03-08T08:12:42.368Z,99253.79
2018-03-08T08:13:48.538Z,99252.64
2018-03-08T08:14:54.671Z,99262.13
2018-03-08T08:16:00.765Z,99267.95
2018-03-08T08:17:06.637Z,99266.16
2018-03-08T08:18:12.794Z,99273.41
2018-03-08T08:19:18.989Z,99273.41
2018-03-08T08:20:25.150Z,99273.09
2018-03-08T08:21:31.280Z,99272.80
2018-03-08T08:22:37.417Z,99272.80
2018-03-08T08:23:43.511Z,99282.91
2018-03-08T08:24:49.271Z,99275.30
2018-03-08T08:25:55.431Z,99279.20
2018-03-08T08:27:01.577Z,99280.91
2018-03-08T08:28:07.718Z,99282.95
2018-03-08T08:29:13.866Z,99284.95
2018-03-08T08:30:20.044Z,99288.61
2018-03-08T08:31:26.525Z,99292.95
2018-03-08T08:32:32.607Z,99289.12
2018-03-08T08:33:38.686Z,99291.94
2018-03-08T08:34:44.774Z,99293.31
2018-03-08T08:35:50.588Z,99299.77
2018-03-08T08:36:56.758Z,99295.84
2018-03-08T08:38:02.947Z,99295.86
2018-03-08T08:39:09.120Z,99294.98
2018-03-08T08:40:15.256Z,99294.83
2018-03-08T08:41:21.442Z,99304.03
2018-03-08T08:42:27.305Z,99302.00
2018-03-08T08:43:33.405Z,99299.59
2018-03-08T08:44:39.579Z,99300.98
2018-03-08T08:45:45.667Z,99299.86
2018-03-08T08:46:51.766Z,99308.45
2018-03-08T08:47:57.938Z,99308.59
2018-03-08T08:49:04.036Z,99304.97
2018-03-08T08:50:10.166Z,99306.10
2018-03-08T08:51:15.950Z,99303.56
2018-03-08T08:52:22.060Z,99299.73
2018-03-08T08:53:28.197Z,99306.30
2018-03-08T08:54:34.329Z,99307.37
2018-03-08T08:55:40.672Z,99305.80
2018-03-08T08:56:46.788Z,99305.75
2018-03-08T08:57:52.920Z,99300.92
2018-03-08T08:58:59.064Z,99310.02
2018-03-08T09:00:04.506Z,99307.74
2018-03-08T09:01:10.632Z,99309.70
2018-03-08T09:02:16.752Z,99310.30
2018-03-08T09:03:22.882Z,99314.16
2018-03-08T09:04:28.989Z,99305.46
2018-03-08T09:05:38.865Z,99311.68
2018-03-08T09:06:45.037Z,99305.55
2018-03-08T09:07:51.195Z,99311.78
2018-03-08T09:08:57.320Z,99310.99
2018-03-08T09:10:03.070Z,99309.56
2018-03-08T09:11:09.188Z,99311.17
2018-03-08T09:12:15.327Z,99319.98
2018-03-08T09:13:21.425Z,99314.23
2018-03-08T09:14:27.528Z,99315.21
2018-03-08T09:15:33.688Z,99317.73
2018-03-08T09:16:39.849Z,99320.89
2018-03-08T09:17:45.977Z,99325.68
2018-03-08T09:18:52.103Z,99320.52
2018-03-08T09:19:57.936Z,99322.50
2018-03-08T09:21:04.122Z,99328.67
2018-03-08T09:22:10.432Z,99321.86
2018-03-08T09:23:24.009Z,99329.80
2018-03-08T09:24:30.114Z,99318.49
2018-03-08T09:25:36.250Z,99323.98
2018-03-08T09:26:42.372Z,99321.34
2018-03-08T09:27:48.565Z,99328.95
2018-03-08T09:28:54.651Z,99328.11
2018-03-08T09:30:00.756Z,99329.72
2018-03-08T09:31:07.146Z,99324.86
2018-03-08T09:32:18.034Z,99322.50
2018-03-08T09:33:24.170Z,99325.91
2018-03-08T09:34:30.332Z,99322.49
2018-03-08T09:35:36.416Z,99320.58
2018-03-08T09:36:42.508Z,99321.11
2018-03-08T09:37:48.476Z,99323.59
2018-03-08T09:38:54.590Z,99328.38
2018-03-08T09:40:00.688Z,99324.88
2018-03-08T09:41:07.031Z,99321.95
2018-03-08T09:42:13.208Z,99323.16
2018-03-08T09:43:19.396Z,99320.28
2018-03-08T09:44:25.501Z,99317.89
2018-03-08T09:45:31.636Z,99322.59
2018-03-08T09:46:37.744Z,99316.41
2018-03-08T09:47:43.692Z,99318.25
2018-03-08T09:48:49.849Z,99320.96
2018-03-08T09:49:56.015Z,99320.61
2018-03-08T09:51:02.202Z,99323.45
2018-03-08T09:52:08.321Z,99327.24
2018-03-08T09:53:14.427Z,99315.87
2018-03-08T09:54:20.572Z,99324.63
2018-03-08T09:55:26.733Z,99326.27
2018-03-08T09:56:32.904Z,99320.48
2018-03-08T09:57:38.985Z,99322.41
2018-03-08T09:58:45.141Z,99315.84
2018-03-08T09:59:51.304Z,99324.07
2018-03-08T10:00:57.434Z,99313.09
2018-03-08T10:02:03.642Z,99319.49
2018-03-08T10:03:09.722Z,99317.85
2018-03-08T10:04:15.834Z,99320.63
2018-03-08T10:05:21.988Z,99316.03
2018-03-08T10:06:28.360Z,99310.80
2018-03-08T10:07:34.538Z,99316.33
2018-03-08T10:08:40.649Z,99310.97
2018-03-08T10:09:46.756Z,99314.92
2018-03-08T10:10:52.528Z,99315.54
2018-03-08T10:11:58.952Z,99309.13
2018-03-08T10:13:05.088Z,99317.59
2018-03-08T10:14:11.205Z,99314.94
2018-03-08T10:15:17.293Z,99306.75
2018-03-08T10:16:23.691Z,99313.19
2018-03-08T10:17:29.953Z,99310.52
2018-03-08T10:18:36.043Z,99310.92
2018-03-08T10:19:42.123Z,99310.33
2018-03-08T10:20:48.330Z,99310.83
2018-03-08T10:21:54.490Z,99312.10
2018-03-08T10:23:00.633Z,99322.48
2018-03-08T10:24:06.744Z,99304.55
2018-03-08T10:25:12.901Z,99307.24
2018-03-08T10:26:24.226Z,99312.42
2018-03-08T10:27:30.362Z,99317.09
2018-03-08T10:28:36.471Z,99315.27
2018-03-08T10:29:42.648Z,99322.05
2018-03-08T10:30:49.590Z,99315.39
2018-03-08T10:31:55.732Z,99320.07
2018-03-08T10:33:01.833Z,99321.09
2018-03-08T10:34:07.968Z,99321.14
2018-03-08T10:35:14.119Z,99323.77
2018-03-08T10:36:20.224Z,99325.13
2018-03-08T10:37:26.352Z,99326.86
2018-03-08T10:38:32.449Z,99312.34
2018-03-08T10:39:38.583Z,99323.59
2018-03-08T10:40:44.408Z,99323.00
2018-03-08T10:41:50.571Z,99322.30
2018-03-08T10:42:56.718Z,99325.78
2018-03-08T10:44:02.830Z,99320.55
2018-03-08T10:45:08.965Z,99328.38
2018-03-08T10:46:15.289Z,99328.41
2018-03-08T10:47:21.439Z,99328.23
2018-03-08T10:48:27.529Z,99321.26
2018-03-08T10:49:33.641Z,99328.23
2018-03-08T10:50:39.772Z,99311.96
2018-03-08T10:51:45.874Z,99324.75
2018-03-08T10:52:51.959Z,99322.75
2018-03-08T10:53:58.095Z,99322.69
2018-03-08T10:55:03.842Z,99324.90
2018-03-08T10:56:09.977Z,99325.23
2018-03-08T10:57:15.466Z,99329.04
2018-03-08T10:58:21.609Z,99341.42
2018-03-08T10:59:27.715Z,99334.62
2018-03-08T11:00:39.178Z,99335.52
2018-03-08T11:01:45.240Z,99341.09
2018-03-08T11:02:52.383Z,99341.30
2018-03-08T11:04:03.989Z,99333.41
2018-03-08T11:05:09.909Z,99344.47
2018-03-08T11:06:21.063Z,99330.59
2018-03-08T11:07:27.207Z,99332.33
2018-03-08T11:08:33.369Z,99338.61
2018-03-08T11:09:39.521Z,99339.19
2018-03-08T11:10:45.620Z,99333.98
2018-03-08T11:11:51.784Z,99333.20
2018-03-08T11:12:57.880Z,99333.62
2018-03-08T11:14:04.030Z,99335.61
2018-03-08T11:15:10.166Z,99338.41
2018-03-08T11:16:16.598Z,99328.28
2018-03-08T11:17:27.805Z,99337.27
2018-03-08T11:18:34.004Z,99334.66
2018-03-08T11:19:40.130Z,99333.94
2018-03-08T11:20:46.238Z,99338.13
2018-03-08T11:21:52.099Z,99328.56
2018-03-08T11:22:58.223Z,99342.22
2018-03-08T11:24:04.021Z,99339.11
2018-03-08T11:25:10.141Z,99337.83
2018-03-08T11:26:16.246Z,99340.64
2018-03-08T11:27:22.397Z,99342.05
2018-03-08T11:28:28.537Z,99348.20
2018-03-08T11:29:34.678Z,99344.20
2018-03-08T11:30:40.797Z,99339.79
2018-03-08T11:31:46.939Z,99339.81
2018-03-08T11:32:53.114Z,99331.06
2018-03-08T11:33:59.283Z,99332.90
2018-03-08T11:35:05.517Z,99322.69
2018-03-08T11:36:11.628Z,99321.34
2018-03-08T11:37:17.735Z,99327.50
2018-03-08T11:38:24.712Z,99328.39
2018-03-08T11:39:30.852Z,99327.30
2018-03-08T11:40:36.968Z,99325.08
2018-03-08T11:41:43.100Z,99324.42
2018-03-08T11:42:49.244Z,99318.50
2018-03-08T11:43:55.412Z,99320.93
2018-03-08T11:45:01.829Z,99319.16
2018-03-08T11:46:07.929Z,99307.22
2018-03-08T11:47:14.046Z,99312.47
2018-03-08T11:48:20.234Z,99312.54
2018-03-08T11:49:26.456Z,99314.41
2018-03-08T11:50:32.583Z,99308.49
2018-03-08T11:51:38.739Z,99312.42
2018-03-08T11:52:44.833Z,99306.94
2018-03-08T11:53:50.958Z,99309.88
2018-03-08T11:54:57.218Z,99313.16
2018-03-08T11:56:03.566Z,99303.69
2018-03-08T11:57:09.717Z,99307.08
2018-03-08T11:58:15.805Z,99306.12
2018-03-08T11:59:21.939Z,99304.34
2018-03-08T12:00:28.080Z,99301.45
2018-03-08T12:01:34.260Z,99304.27
2018-03-08T12:02:40.464Z,99296.52
2018-03-08T12:03:46.594Z,99298.38
2018-03-08T12:04:52.761Z,99286.55
2018-03-08T12:05:58.908Z,99283.44
2018-03-08T12:07:04.668Z,99284.34
2018-03-08T12:08:10.767Z,99286.75
2018-03-08T12:09:16.880Z,99280.27
2018-03-08T12:10:23.024Z,99283.84
2018-03-08T12:11:29.156Z,99276.13
2018-03-08T12:12:35.269Z,99266.23
2018-03-08T12:13:41.404Z,99260.53
2018-03-08T12:14:47.537Z,99270.42
2018-03-08T12:15:53.660Z,99272.36
2018-03-08T12:16:59.881Z,99272.43
2018-03-08T12:18:06.176Z,99259.86
2018-03-08T12:19:12.317Z,99266.06
2018-03-08T12:20:18.572Z,99269.27
2018-03-08T12:21:24.667Z,99266.00
2018-03-08T12:22:30.793Z,99270.02
2018-03-08T12:23:36.932Z,99278.58
2018-03-08T12:24:44.437Z,99264.25
2018-03-08T12:25:50.620Z,99273.39
2018-03-08T12:26:56.786Z,99272.74
2018-03-08T12:28:02.921Z,99268.66
2018-03-08T12:29:09.061Z,99271.21
2018-03-08T12:30:15.185Z,99267.50
2018-03-08T12:31:21.288Z,99268.20
2018-03-08T12:32:27.667Z,99268.73
2018-03-08T12:33:33.855Z,99278.85
2018-03-08T12:34:40.001Z,99265.97
2018-03-08T12:35:46.141Z,99274.56
2018-03-08T12:36:52.367Z,99266.11
2018-03-08T12:37:58.550Z,99264.99
2018-03-08T12:39:03.784Z,99268.98
2018-03-08T12:40:09.953Z,99269.50
2018-03-08T12:41:16.085Z,99264.40
2018-03-08T12:42:22.401Z,99265.00
2018-03-08T12:43:28.806Z,99263.39
2018-03-08T12:44:35.000Z,99259.06
2018-03-08T12:45:41.197Z,99269.06
2018-03-08T12:46:47.349Z,99269.36
2018-03-08T12:47:53.537Z,99266.19
2018-03-08T12:48:59.731Z,99263.77
2018-03-08T12:50:05.946Z,99265.91
2018-03-08T12:51:12.081Z,99269.66
2018-03-08T12:52:17.969Z,99261.96
2018-03-08T12:53:24.102Z,99274.91
2018-03-08T12:54:30.234Z,99268.19
2018-03-08T12:55:36.329Z,99273.17
2018-03-08T12:56:42.476Z,99276.45
2018-03-08T12:57:48.684Z,99272.84
2018-03-08T12:58:54.867Z,99277.70
2018-03-08T13:00:01.005Z,99271.57
2018-03-08T13:01:07.024Z,99274.27